Time;durP1;ratioP1;P1;durP2;ratioP2;P2;SDS_P1;SDS_P2;PMS_P1;PMS_P2;Temp;Humidity;BMP_temperature;BMP_pressure;BME280_temperature;BME280_humidity;BME280_pressure;Samples;Min_cycle;Max_cycle;Signal;HPM_P1;HPM_P2
2023/11/12 00:02:22;;;;;;;1.63;1.00;;;;;;;;;;4982406;28;20023;-58
2023/11/12 00:04:57;;;;;;;3.20;1.67;;;;;;;;;;4982572;28;20122;-58
2023/11/12 00:07:24;;;;;;;3.05;1.83;;;;;;;;;;4978995;28;20473;-59
2023/11/12 00:10:12;;;;;;;2.25;1.58;;;;;;;;;;4979198;28;20046;-56
2023/11/12 00:13:00;;;;;;;3.00;1.30;;;;;;;;;;4980152;28;20042;-59
2023/11/12 00:15:36;;;;;;;4.18;1.40;;;;;;;;;;4982938;28;20044;-57
2023/11/12 00:18:33;;;;;;;2.65;1.08;;;;;;;;;;4975684;28;20106;-58
2023/11/12 00:21:08;;;;;;;2.75;1.20;;;;;;;;;;4982802;28;20031;-58
2023/11/12 00:26:43;;;;;;;2.08;1.02;;;;;;;;;;4983004;28;20058;-59
2023/11/12 00:32:35;;;;;;;3.13;1.25;;;;;;;;;;4982601;28;20042;-58
2023/11/12 00:35:03;;;;;;;4.28;1.40;;;;;;;;;;4982683;28;20033;-58
2023/11/12 00:40:27;;;;;;;3.08;1.42;;;;;;;;;;4986359;28;20109;-58
2023/11/12 00:43:12;;;;;;;2.85;1.33;;;;;;;;;;4985988;28;20082;-58
2023/11/12 00:48:33;;;;;;;2.38;1.08;;;;;;;;;;4985041;28;20047;-58
2023/11/12 00:51:09;;;;;;;1.75;0.95;;;;;;;;;;4985887;28;20045;-58
2023/11/12 00:53:45;;;;;;;5.50;1.23;;;;;;;;;;4985932;28;20034;-57
2023/11/12 00:56:18;;;;;;;5.72;1.10;;;;;;;;;;4985955;28;20035;-58
2023/11/12 01:01:39;;;;;;;2.40;1.50;;;;;;;;;;4985852;28;20377;-58
2023/11/12 01:07:13;;;;;;;1.60;1.05;;;;;;;;;;4981316;28;20462;-58
2023/11/12 01:10:00;;;;;;;1.40;0.88;;;;;;;;;;4986430;28;20046;-58
2023/11/12 01:15:47;;;;;;;2.10;1.00;;;;;;;;;;4985267;28;20038;-58
2023/11/12 01:21:33;;;;;;;2.42;0.88;;;;;;;;;;4985732;28;20041;-58
2023/11/12 01:27:09;;;;;;;2.33;1.10;;;;;;;;;;4984074;28;20574;-59
2023/11/12 01:39:14;;;;;;;1.90;0.93;;;;;;;;;;4951910;28;20031;-58
2023/11/12 01:42:09;;;;;;;2.20;1.17;;;;;;;;;;4984592;28;20033;-58
2023/11/12 01:48:09;;;;;;;3.78;1.00;;;;;;;;;;4955677;28;20038;-58
2023/11/12 01:50:42;;;;;;;1.98;0.98;;;;;;;;;;4984325;28;20043;-58
2023/11/12 01:53:19;;;;;;;1.02;0.57;;;;;;;;;;4983100;28;20087;-58
2023/11/12 01:59:16;;;;;;;1.92;1.05;;;;;;;;;;4981141;28;20031;-58
2023/11/12 02:01:55;;;;;;;2.00;1.10;;;;;;;;;;4984824;28;20054;-58
2023/11/12 02:04:58;;;;;;;2.45;1.10;;;;;;;;;;4984550;28;20541;-58
2023/11/12 02:07:56;;;;;;;1.60;0.82;;;;;;;;;;4950121;28;20038;-58
2023/11/12 02:10:48;;;;;;;2.58;1.00;;;;;;;;;;4981787;28;20059;-58
2023/11/12 02:13:21;;;;;;;1.02;0.60;;;;;;;;;;4984019;28;20090;-58
2023/11/12 02:16:07;;;;;;;2.03;1.00;;;;;;;;;;4983385;28;20025;-58
2023/11/12 02:18:39;;;;;;;1.90;1.00;;;;;;;;;;4983718;28;20026;-58
2023/11/12 02:21:37;;;;;;;2.75;0.98;;;;;;;;;;4984283;28;20113;-58
2023/11/12 02:30:10;;;;;;;1.67;0.60;;;;;;;;;;4983926;28;20308;-58
2023/11/12 02:33:03;;;;;;;1.90;0.75;;;;;;;;;;4983957;28;20030;-58
2023/11/12 02:35:44;;;;;;;1.23;0.55;;;;;;;;;;4979568;28;20464;-58
2023/11/12 02:38:29;;;;;;;2.80;0.88;;;;;;;;;;4983337;28;20043;-58
2023/11/12 02:40:56;;;;;;;1.90;0.70;;;;;;;;;;4981229;28;20043;-58
2023/11/12 02:47:06;;;;;;;1.05;0.43;;;;;;;;;;4955071;28;20085;-59
2023/11/12 02:55:58;;;;;;;1.60;0.63;;;;;;;;;;4983214;28;19914;-58
2023/11/12 03:01:27;;;;;;;0.90;0.50;;;;;;;;;;4978394;28;20035;-59
2023/11/12 03:04:16;;;;;;;1.40;0.52;;;;;;;;;;4983102;28;20030;-58
2023/11/12 03:07:11;;;;;;;1.15;0.50;;;;;;;;;;4921614;29;20056;-58
2023/11/12 03:12:52;;;;;;;4.28;0.63;;;;;;;;;;4983011;28;20136;-58
2023/11/12 03:15:39;;;;;;;6.97;0.88;;;;;;;;;;4982704;28;20038;-57
2023/11/12 03:18:19;;;;;;;1.27;0.73;;;;;;;;;;4981529;28;20054;-58
2023/11/12 03:20:54;;;;;;;2.90;1.30;;;;;;;;;;4983075;28;20042;-58
2023/11/12 03:23:50;;;;;;;1.45;0.77;;;;;;;;;;4982414;28;20027;-58
2023/11/12 03:26:19;;;;;;;1.50;0.80;;;;;;;;;;4980317;28;20038;-58
2023/11/12 03:29:08;;;;;;;2.30;0.77;;;;;;;;;;4982362;28;20050;-58
2023/11/12 03:35:01;;;;;;;1.48;0.80;;;;;;;;;;4965670;28;20034;-58
2023/11/12 03:37:50;;;;;;;2.05;0.75;;;;;;;;;;4982558;28;20034;-58
2023/11/12 03:40:35;;;;;;;1.85;0.82;;;;;;;;;;4982550;28;20027;-58
2023/11/12 03:46:02;;;;;;;1.58;1.02;;;;;;;;;;4982760;28;20036;-58
2023/11/12 03:48:59;;;;;;;2.15;1.00;;;;;;;;;;4982133;28;20031;-58
2023/11/12 03:51:49;;;;;;;2.10;1.02;;;;;;;;;;4982694;28;20034;-59
2023/11/12 03:57:20;;;;;;;;;;;;;;;;;;4971227;28;20039;-58
2023/11/12 04:00:06;;;;;;;2.72;1.40;;;;;;;;;;4981373;28;19914;-57
2023/11/12 04:06:24;;;;;;;2.60;1.05;;;;;;;;;;4952953;28;20035;-58
2023/11/12 04:09:08;;;;;;;1.40;0.80;;;;;;;;;;4982485;28;20119;-58
2023/11/12 04:11:56;;;;;;;3.92;1.75;;;;;;;;;;4982296;28;20038;-58
2023/11/12 04:14:45;;;;;;;2.05;1.35;;;;;;;;;;4985647;28;20095;-58
2023/11/12 04:17:24;;;;;;;3.00;1.10;;;;;;;;;;4977969;28;20035;-58
2023/11/12 04:20:28;;;;;;;2.15;1.30;;;;;;;;;;4984647;28;20035;-58
2023/11/12 04:23:04;;;;;;;4.30;1.38;;;;;;;;;;4986810;28;20042;-58
2023/11/12 04:29:06;;;;;;;2.55;1.40;;;;;;;;;;4925869;29;20112;-57
2023/11/12 04:31:55;;;;;;;2.65;1.73;;;;;;;;;;4925344;29;20047;-58
2023/11/12 04:34:56;;;;;;;2.83;1.40;;;;;;;;;;4986391;28;20471;-58
2023/11/12 04:37:54;;;;;;;4.32;1.70;;;;;;;;;;4925527;29;20122;-58
2023/11/12 04:40:30;;;;;;;3.80;2.33;;;;;;;;;;4985960;28;20066;-58
2023/11/12 04:43:05;;;;;;;3.25;2.00;;;;;;;;;;4985774;28;20093;-57
2023/11/12 04:45:58;;;;;;;4.57;2.50;;;;;;;;;;4986050;28;20485;-58
2023/11/12 04:48:44;;;;;;;4.45;2.65;;;;;;;;;;4985503;28;20054;-58
2023/11/12 04:52:02;;;;;;;3.42;2.25;;;;;;;;;;4985977;28;20461;-58
2023/11/12 04:55:07;;;;;;;6.05;3.40;;;;;;;;;;4926698;29;20043;-58
2023/11/12 04:57:59;;;;;;;5.88;3.40;;;;;;;;;;4904454;29;20036;-58
2023/11/12 05:00:53;;;;;;;6.38;2.53;;;;;;;;;;4926210;29;20044;-57
2023/11/12 05:03:40;;;;;;;6.22;3.55;;;;;;;;;;4925735;29;20052;-58
2023/11/12 05:06:14;;;;;;;4.10;3.05;;;;;;;;;;4910357;29;20036;-58
2023/11/12 05:09:10;;;;;;;5.32;3.45;;;;;;;;;;4905795;29;20104;-58
2023/11/12 05:11:51;;;;;;;5.97;4.05;;;;;;;;;;4871468;29;20045;-58
2023/11/12 05:17:39;;;;;;;5.15;3.60;;;;;;;;;;4953709;28;20572;-58
2023/11/12 05:26:24;;;;;;;7.93;4.72;;;;;;;;;;4907369;29;20035;-58
2023/11/12 05:29:09;;;;;;;6.95;4.72;;;;;;;;;;4906597;29;20048;-58
2023/11/12 05:35:02;;;;;;;7.38;4.45;;;;;;;;;;4909651;28;20056;-58
2023/11/12 05:38:05;;;;;;;5.38;4.53;;;;;;;;;;4985099;28;20023;-57
2023/11/12 05:40:38;;;;;;;5.07;3.88;;;;;;;;;;4934185;29;20109;-58
2023/11/12 05:43:39;;;;;;;5.20;4.22;;;;;;;;;;4963835;28;20046;-58
2023/11/12 05:52:07;;;;;;;7.10;4.68;;;;;;;;;;4888861;29;20078;-58
2023/11/12 05:58:35;;;;;;;5.40;3.92;;;;;;;;;;4956403;28;20037;-57
2023/11/12 06:01:23;;;;;;;6.70;4.55;;;;;;;;;;4918811;29;20455;-58
2023/11/12 06:04:02;;;;;;;4.13;3.50;;;;;;;;;;4900954;29;20049;-58
2023/11/12 06:12:41;;;;;;;4.53;4.03;;;;;;;;;;4975703;28;20041;-56
2023/11/12 06:15:13;;;;;;;5.90;3.55;;;;;;;;;;4972825;28;20027;-58
2023/11/12 06:18:09;;;;;;;4.25;3.33;;;;;;;;;;4939953;28;20496;-56
2023/11/12 06:23:43;;;;;;;4.18;3.05;;;;;;;;;;4962740;28;20034;-58
2023/11/12 06:29:37;;;;;;;3.92;2.40;;;;;;;;;;4921858;28;20069;-58
2023/11/12 06:32:32;;;;;;;3.25;2.30;;;;;;;;;;4975810;28;20035;-57
2023/11/12 06:35:01;;;;;;;4.38;2.75;;;;;;;;;;4975817;28;20115;-57
2023/11/12 06:44:09;;;;;;;4.07;2.10;;;;;;;;;;4951305;28;20043;-58
2023/11/12 06:46:45;;;;;;;3.65;2.35;;;;;;;;;;4981950;28;20366;-58
2023/11/12 06:49:23;;;;;;;5.00;2.65;;;;;;;;;;4973551;28;20480;-57
2023/11/12 06:55:26;;;;;;;3.85;2.70;;;;;;;;;;4974716;28;20089;-58
2023/11/12 06:57:58;;;;;;;3.50;2.40;;;;;;;;;;4953722;29;20461;-58
2023/11/12 07:03:31;;;;;;;2.75;2.03;;;;;;;;;;4962039;28;20388;-57
2023/11/12 07:06:32;;;;;;;4.60;2.55;;;;;;;;;;4962582;28;20382;-58
2023/11/12 07:09:29;;;;;;;;;;;;;;;;;;;;;
2023/11/12 07:12:29;;;;;;;3.13;2.28;;;;;;;;;;4972906;28;20038;-57
2023/11/12 07:15:14;;;;;;;6.03;2.13;;;;;;;;;;4971981;28;20424;-57
2023/11/12 07:18:04;;;;;;;3.25;2.15;;;;;;;;;;4972033;28;20532;-58
2023/11/12 07:20:33;;;;;;;2.58;1.83;;;;;;;;;;4946466;28;20026;-56
2023/11/12 07:23:36;;;;;;;2.50;1.80;;;;;;;;;;4973822;28;20042;-58
2023/11/12 07:29:14;;;;;;;;;;;;;;;;;;;;;
2023/11/12 07:31:58;;;;;;;5.47;2.50;;;;;;;;;;4965882;28;20047;-57
2023/11/12 07:34:26;;;;;;;5.95;2.33;;;;;;;;;;4971471;28;20548;-57
2023/11/12 07:37:19;;;;;;;;;;;;;;;;;;;;;
2023/11/12 07:40:01;;;;;;;6.50;3.10;;;;;;;;;;4973765;28;20308;-56
2023/11/12 07:42:28;;;;;;;4.00;2.83;;;;;;;;;;4972540;28;20022;-57
2023/11/12 07:48:02;;;;;;;;;;;;;;;;;;;;;
2023/11/12 07:50:40;;;;;;;3.65;1.90;;;;;;;;;;4973224;28;20412;-59
2023/11/12 07:53:28;;;;;;;4.05;2.70;;;;;;;;;;4972797;28;20070;-57
2023/11/12 07:56:24;;;;;;;4.05;2.13;;;;;;;;;;4954581;28;20106;-59
2023/11/12 07:58:57;;;;;;;3.80;2.58;;;;;;;;;;4954492;29;20118;-57
2023/11/12 08:01:45;;;;;;;5.28;2.88;;;;;;;;;;4963275;28;20366;-59
2023/11/12 08:04:42;;;;;;;11.98;3.42;;;;;;;;;;4972717;28;20382;-57
2023/11/12 08:07:40;;;;;;;12.48;3.20;;;;;;;;;;4971374;28;20035;-57
2023/11/12 08:13:47;;;;;;;;;;;;;;;;;;;;;
2023/11/12 08:16:34;;;;;;;5.03;3.17;;;;;;;;;;4973057;28;20027;-58
2023/11/12 08:19:31;;;;;;;4.10;2.85;;;;;;;;;;4971960;28;20023;-58
2023/11/12 08:21:59;;;;;;;4.32;3.53;;;;;;;;;;4962615;28;20027;-57
2023/11/12 08:27:47;;;;;;;4.30;3.20;;;;;;;;;;4972819;28;20035;-59
2023/11/12 08:30:45;;;;;;;4.70;3.55;;;;;;;;;;4971410;28;20031;-58
2023/11/12 08:33:34;;;;;;;3.72;2.80;;;;;;;;;;4968869;28;20034;-59
2023/11/12 08:36:30;;;;;;;4.18;2.65;;;;;;;;;;4973391;28;20408;-59
2023/11/12 08:39:05;;;;;;;3.55;2.67;;;;;;;;;;4972949;28;20121;-59
2023/11/12 08:41:46;;;;;;;9.07;3.45;;;;;;;;;;4967556;28;20483;-59
2023/11/12 08:44:27;;;;;;;3.65;2.72;;;;;;;;;;4976995;28;20045;-59
2023/11/12 08:46:56;;;;;;;3.88;3.22;;;;;;;;;;4967739;28;20050;-59
2023/11/12 08:49:43;;;;;;;3.65;2.53;;;;;;;;;;4986921;28;20023;-59
2023/11/12 08:52:14;;;;;;;3.28;2.33;;;;;;;;;;4972816;28;20050;-59
2023/11/12 08:54:46;;;;;;;;;;;;;;;;;;4974105;28;20114;-59
2023/11/12 08:57:31;;;;;;;4.22;2.72;;;;;;;;;;4972910;28;20318;-57
2023/11/12 09:00:06;;;;;;;3.00;2.13;;;;;;;;;;4976471;28;20042;-57
2023/11/12 09:02:44;;;;;;;4.57;2.90;;;;;;;;;;4958317;28;20047;-55
2023/11/12 09:05:35;;;;;;;;;;;;;;;;;;;;;
2023/11/12 09:08:16;;;;;;;4.07;2.65;;;;;;;;;;4976101;28;20230;-56
2023/11/12 09:11:05;;;;;;;5.18;3.28;;;;;;;;;;4975967;28;20465;-56
2023/11/12 09:14:03;;;;;;;4.53;2.75;;;;;;;;;;4951631;28;20046;-59
2023/11/12 09:19:37;;;;;;;3.60;2.30;;;;;;;;;;4951902;28;20117;-57
2023/11/12 09:25:10;;;;;;;3.33;2.28;;;;;;;;;;4972899;28;20126;-58
2023/11/12 09:27:58;;;;;;;2.60;1.75;;;;;;;;;;4972841;28;20377;-58
2023/11/12 09:30:41;;;;;;;3.30;2.40;;;;;;;;;;4975874;28;20023;-58
2023/11/12 09:33:37;;;;;;;7.30;2.58;;;;;;;;;;4964921;28;20043;-57
2023/11/12 09:36:31;;;;;;;;;;;;;;;;;;;;;
2023/11/12 09:39:01;;;;;;;4.45;2.10;;;;;;;;;;4974116;28;20027;-58
2023/11/12 09:41:54;;;;;;;2.60;1.80;;;;;;;;;;4970192;28;20023;-57
2023/11/12 09:45:01;;;;;;;4.28;1.92;;;;;;;;;;4974111;28;20441;-57
2023/11/12 09:47:48;;;;;;;5.90;2.85;;;;;;;;;;4967925;28;20094;-57
2023/11/12 09:50:35;;;;;;;3.33;1.83;;;;;;;;;;4954820;28;20397;-57
2023/11/12 09:53:33;;;;;;;3.28;2.17;;;;;;;;;;4986988;28;20393;-57
2023/11/12 09:59:30;;;;;;;;;;;;;;;;;;;;;
2023/11/12 10:01:56;;;;;;;4.20;2.17;;;;;;;;;;4966419;28;20055;-57
2023/11/12 10:04:45;;;;;;;2.80;2.08;;;;;;;;;;4973255;28;20654;-57
2023/11/12 10:07:26;;;;;;;5.22;2.85;;;;;;;;;;4958754;28;20118;-57
2023/11/12 10:13:09;;;;;;;4.53;2.72;;;;;;;;;;4949438;28;20038;-54
2023/11/12 10:15:39;;;;;;;4.28;2.85;;;;;;;;;;4991854;28;20041;-57
2023/11/12 10:21:29;;;;;;;8.50;2.58;;;;;;;;;;4929301;29;20040;-57
2023/11/12 10:27:17;;;;;;;3.40;2.33;;;;;;;;;;4932251;29;20099;-56
2023/11/12 10:29:51;;;;;;;4.22;2.70;;;;;;;;;;4934306;29;20058;-57
2023/11/12 10:32:46;;;;;;;;;;;;;;;;;;;;;
2023/11/12 10:38:28;;;;;;;3.40;2.50;;;;;;;;;;4948784;28;20047;-54
2023/11/12 10:41:26;;;;;;;9.70;2.85;;;;;;;;;;4970249;28;20496;-57
2023/11/12 10:47:13;;;;;;;4.95;2.58;;;;;;;;;;4956815;28;20033;-57
2023/11/12 10:52:55;;;;;;;5.40;2.28;;;;;;;;;;4974226;28;20469;-56
2023/11/12 10:56:05;;;;;;;;;;;;;;;;;;;;;
2023/11/12 10:58:52;;;;;;;5.80;2.30;;;;;;;;;;4972691;28;20039;-58
2023/11/12 11:04:31;;;;;;;2.83;1.80;;;;;;;;;;4970428;28;20125;-55
2023/11/12 11:07:34;;;;;;;5.10;2.63;;;;;;;;;;4973262;28;20023;-57
2023/11/12 11:10:27;;;;;;;3.22;2.20;;;;;;;;;;4928760;28;20043;-54
2023/11/12 11:13:06;;;;;;;3.92;2.75;;;;;;;;;;4969065;28;20081;-57
2023/11/12 11:15:39;;;;;;;4.30;2.65;;;;;;;;;;4959068;28;20493;-58
2023/11/12 11:18:34;;;;;;;10.80;4.18;;;;;;;;;;4973551;28;20030;-57
2023/11/12 11:21:13;;;;;;;6.90;3.78;;;;;;;;;;4971440;28;20042;-55
2023/11/12 11:23:52;;;;;;;;;;;;;;;;;;;;;
2023/11/12 11:26:32;;;;;;;3.80;2.72;;;;;;;;;;4972954;28;20033;-58
2023/11/12 11:29:35;;;;;;;4.45;2.50;;;;;;;;;;4974051;28;20066;-59
2023/11/12 11:32:33;;;;;;;4.72;2.13;;;;;;;;;;4973877;28;20485;-58
2023/11/12 11:42:08;;;;;;;4.13;2.75;;;;;;;;;;4951921;29;20505;-57
2023/11/12 11:45:05;;;;;;;2.63;1.90;;;;;;;;;;4965832;28;20189;-58
2023/11/12 11:47:44;;;;;;;3.22;1.70;;;;;;;;;;4969476;28;20050;-58
2023/11/12 11:50:58;;;;;;;2.92;1.60;;;;;;;;;;4972497;28;20093;-57
2023/11/12 11:53:17;;;;;;;3.13;1.67;;;;;;;;;;4969119;28;20113;-57
2023/11/12 11:56:04;;;;;;;3.50;1.95;;;;;;;;;;4965062;28;20097;-58
2023/11/12 11:58:50;;;;;;;2.95;1.83;;;;;;;;;;4968714;28;20034;-58
2023/11/12 12:01:27;;;;;;;3.00;1.45;;;;;;;;;;4972690;28;20472;-57
2023/11/12 12:04:15;;;;;;;3.05;1.75;;;;;;;;;;4967246;28;20039;-55
2023/11/12 12:07:14;;;;;;;2.95;1.83;;;;;;;;;;4966890;28;20393;-58
2023/11/12 12:10:07;;;;;;;2.42;1.35;;;;;;;;;;4978194;28;20086;-57
2023/11/12 12:13:04;;;;;;;3.67;2.20;;;;;;;;;;4971751;28;20121;-56
2023/11/12 12:16:03;;;;;;;2.60;1.90;;;;;;;;;;4972237;28;20027;-56
2023/11/12 12:18:52;;;;;;;3.95;2.17;;;;;;;;;;4964818;28;20437;-57
2023/11/12 12:21:49;;;;;;;3.45;2.22;;;;;;;;;;4959603;28;20134;-58
2023/11/12 12:24:26;;;;;;;3.38;2.13;;;;;;;;;;4969229;28;20046;-58
2023/11/12 12:30:16;;;;;;;;;;;;;;;;;;;;;
2023/11/12 12:32:59;;;;;;;2.33;1.45;;;;;;;;;;4972338;28;20524;-58
2023/11/12 12:35:49;;;;;;;3.15;1.90;;;;;;;;;;4969865;28;20030;-56
2023/11/12 12:38:36;;;;;;;2.92;2.30;;;;;;;;;;4976313;28;20038;-56
2023/11/12 12:41:25;;;;;;;3.33;1.77;;;;;;;;;;4975306;28;20061;-56
2023/11/12 12:44:07;;;;;;;2.75;1.90;;;;;;;;;;4969787;28;20306;-55
2023/11/12 12:46:51;;;;;;;2.25;1.65;;;;;;;;;;4963037;28;20050;-56
2023/11/12 12:49:42;;;;;;;3.20;1.65;;;;;;;;;;4969546;28;20227;-56
2023/11/12 12:52:34;;;;;;;2.65;1.42;;;;;;;;;;4972078;28;20031;-57
2023/11/12 12:55:20;;;;;;;2.42;1.58;;;;;;;;;;4972093;28;20393;-56
2023/11/12 12:58:15;;;;;;;2.63;1.42;;;;;;;;;;4981627;28;20035;-57
2023/11/12 13:01:10;;;;;;;3.20;1.42;;;;;;;;;;4976530;28;20051;-57
2023/11/12 13:03:50;;;;;;;3.47;1.80;;;;;;;;;;4970296;28;20476;-57
2023/11/12 13:06:37;;;;;;;2.40;1.65;;;;;;;;;;4983387;28;20440;-54
2023/11/12 13:09:26;;;;;;;3.03;1.65;;;;;;;;;;4977117;28;20030;-57
2023/11/12 13:12:13;;;;;;;2.55;1.88;;;;;;;;;;4984035;28;20039;-57
2023/11/12 13:15:25;;;;;;;2.70;1.85;;;;;;;;;;4975354;28;20659;-56
2023/11/12 13:21:06;;;;;;;1.85;1.15;;;;;;;;;;4963859;28;20111;-58
2023/11/12 13:23:44;;;;;;;2.00;1.27;;;;;;;;;;4968965;28;20035;-58
2023/11/12 13:26:32;;;;;;;2.80;1.90;;;;;;;;;;4972101;28;20043;-57
2023/11/12 13:32:22;;;;;;;;;;;;;;;;;;;;;
2023/11/12 13:35:08;;;;;;;2.90;1.60;;;;;;;;;;4956473;28;20395;-57
2023/11/12 13:38:15;;;;;;;;;;;;;;;;;;;;;
2023/11/12 13:40:51;;;;;;;2.05;1.23;;;;;;;;;;4965927;28;20326;-57
2023/11/12 13:43:34;;;;;;;3.00;1.90;;;;;;;;;;4973504;28;20057;-58
2023/11/12 13:46:16;;;;;;;1.95;1.15;;;;;;;;;;4976212;28;20058;-58
2023/11/12 13:48:55;;;;;;;1.80;1.13;;;;;;;;;;4967947;28;20027;-58
2023/11/12 13:52:14;;;;;;;;;;;;;;;;;;;;;
2023/11/12 13:54:56;;;;;;;2.30;1.13;;;;;;;;;;4960113;28;20145;-58
2023/11/12 13:57:34;;;;;;;1.85;1.20;;;;;;;;;;4988794;28;20121;-58
2023/11/12 14:00:17;;;;;;;1.98;1.20;;;;;;;;;;4971707;28;20085;-58
2023/11/12 14:02:55;;;;;;;2.40;1.17;;;;;;;;;;4956076;28;20079;-58
2023/11/12 14:05:27;;;;;;;2.72;1.63;;;;;;;;;;4971610;28;20531;-57
2023/11/12 14:07:55;;;;;;;3.03;0.88;;;;;;;;;;4959664;28;20031;-58
2023/11/12 14:10:25;;;;;;;4.70;1.60;;;;;;;;;;4974268;28;20427;-58
2023/11/12 14:13:22;;;;;;;1.98;1.40;;;;;;;;;;4975454;28;20034;-57
2023/11/12 14:19:12;;;;;;;;;;;;;;;;;;;;;
2023/11/12 14:21:58;;;;;;;3.22;1.38;;;;;;;;;;4959196;28;20057;-58
2023/11/12 14:24:42;;;;;;;2.13;1.40;;;;;;;;;;4967405;28;20053;-58
2023/11/12 14:27:11;;;;;;;2.50;1.73;;;;;;;;;;4972580;28;20235;-56
2023/11/12 14:29:41;;;;;;;2.38;1.60;;;;;;;;;;4972134;28;20058;-58
2023/11/12 14:35:22;;;;;;;2.75;1.50;;;;;;;;;;4969054;28;20058;-58
2023/11/12 14:38:20;;;;;;;3.20;1.70;;;;;;;;;;4969517;28;20081;-57
2023/11/12 14:41:18;;;;;;;3.13;2.03;;;;;;;;;;4965226;28;20538;-58
2023/11/12 14:43:59;;;;;;;3.45;1.65;;;;;;;;;;4965142;28;20046;-58
2023/11/12 14:46:33;;;;;;;2.78;1.73;;;;;;;;;;4966778;28;20085;-58
2023/11/12 14:49:26;;;;;;;2.67;1.52;;;;;;;;;;4973696;28;20408;-58
2023/11/12 14:52:15;;;;;;;2.80;1.63;;;;;;;;;;4947912;29;20130;-56
2023/11/12 14:54:44;;;;;;;3.22;1.63;;;;;;;;;;4951725;28;20057;-58
2023/11/12 15:00:35;;;;;;;2.38;1.38;;;;;;;;;;4970574;28;20045;-58
2023/11/12 15:03:21;;;;;;;3.03;1.58;;;;;;;;;;4916287;28;20054;-57
2023/11/12 15:05:52;;;;;;;2.65;1.35;;;;;;;;;;4971793;28;20098;-58
2023/11/12 15:11:35;;;;;;;;;;;;;;;;;;;;;
2023/11/12 15:14:12;;;;;;;2.33;1.42;;;;;;;;;;4960141;28;20429;-58
2023/11/12 15:16:46;;;;;;;2.33;1.38;;;;;;;;;;4969619;28;20031;-58
2023/11/12 15:31:23;;;;;;;2.00;1.13;;;;;;;;;;4967158;28;20041;-58
2023/11/12 15:34:06;;;;;;;1.90;1.10;;;;;;;;;;4962557;28;20166;-56
2023/11/12 15:37:10;;;;;;;2.53;1.30;;;;;;;;;;4958304;28;20129;-57
2023/11/12 15:39:45;;;;;;;1.67;1.05;;;;;;;;;;4973699;28;20050;-58
2023/11/12 15:42:28;;;;;;;1.40;0.80;;;;;;;;;;4973706;28;20031;-58
2023/11/12 15:45:13;;;;;;;1.17;0.52;;;;;;;;;;4965699;28;20578;-58
2023/11/12 15:48:06;;;;;;;1.13;0.50;;;;;;;;;;4972429;28;20058;-54
2023/11/12 15:51:02;;;;;;;0.98;0.50;;;;;;;;;;4969944;28;20023;-56
2023/11/12 15:54:00;;;;;;;1.63;0.57;;;;;;;;;;4966503;28;20027;-57
2023/11/12 15:56:52;;;;;;;0.73;0.40;;;;;;;;;;4966768;28;20512;-56
2023/11/12 15:59:25;;;;;;;1.00;0.60;;;;;;;;;;4963571;28;20030;-58
2023/11/12 16:02:17;;;;;;;;;;;;;;;;;;;;;
2023/11/12 16:07:39;;;;;;;1.50;0.70;;;;;;;;;;4966102;28;20396;-55
2023/11/12 16:10:35;;;;;;;1.67;0.70;;;;;;;;;;4972745;28;20257;-58
2023/11/12 16:13:13;;;;;;;1.27;0.82;;;;;;;;;;4965015;28;20359;-58
2023/11/12 16:15:57;;;;;;;2.22;1.13;;;;;;;;;;4972978;28;20424;-58
2023/11/12 16:21:24;;;;;;;1.35;0.80;;;;;;;;;;4972551;28;20211;-57
2023/11/12 16:27:26;;;;;;;1.30;0.60;;;;;;;;;;4892682;29;20118;-56
2023/11/12 16:32:58;;;;;;;2.00;0.68;;;;;;;;;;4892968;29;20043;-57
2023/11/12 16:41:55;;;;;;;1.60;0.85;;;;;;;;;;4901040;29;20042;-56
2023/11/12 16:44:24;;;;;;;2.00;1.17;;;;;;;;;;4916947;28;20062;-58
2023/11/12 16:50:39;;;;;;;1.58;0.90;;;;;;;;;;4936212;28;20039;-57
2023/11/12 16:53:04;;;;;;;2.30;1.35;;;;;;;;;;4960432;28;20085;-57
2023/11/12 16:55:40;;;;;;;2.85;1.20;;;;;;;;;;4963789;28;20035;-57
2023/11/12 16:58:26;;;;;;;;;;;;;;;;;;;;;
2023/11/12 17:07:14;;;;;;;1.73;0.98;;;;;;;;;;4961283;28;20047;-57
2023/11/12 17:10:20;;;;;;;2.35;1.17;;;;;;;;;;4967596;28;20566;-55
2023/11/12 17:13:08;;;;;;;2.67;1.52;;;;;;;;;;4964167;28;20054;-57
2023/11/12 17:15:59;;;;;;;2.08;1.17;;;;;;;;;;4963823;28;20046;-57
2023/11/12 17:21:54;;;;;;;3.85;1.13;;;;;;;;;;4933303;28;20142;-58
2023/11/12 17:24:37;;;;;;;1.63;0.75;;;;;;;;;;4949625;28;20524;-57
2023/11/12 17:27:28;;;;;;;1.50;0.90;;;;;;;;;;4972386;28;20031;-57
2023/11/12 17:30:09;;;;;;;2.28;0.95;;;;;;;;;;4971949;28;20432;-58
2023/11/12 17:35:58;;;;;;;1.98;1.17;;;;;;;;;;4915828;29;20066;-58
2023/11/12 17:38:41;;;;;;;2.17;1.27;;;;;;;;;;4952183;28;20413;-55
2023/11/12 17:44:15;;;;;;;2.33;1.15;;;;;;;;;;4973368;28;20242;-58
2023/11/12 17:46:56;;;;;;;3.45;1.60;;;;;;;;;;4972146;28;20031;-58
2023/11/12 17:49:56;;;;;;;3.25;2.63;;;;;;;;;;4972611;28;20077;-58
2023/11/12 17:52:51;;;;;;;3.13;2.53;;;;;;;;;;4972143;28;20982;-59
2023/11/12 17:55:45;;;;;;;2.67;1.88;;;;;;;;;;4971477;28;20031;-56
2023/11/12 18:01:39;;;;;;;;;;;;;;;;;;;;;
2023/11/12 18:04:24;;;;;;;3.60;1.67;;;;;;;;;;4944990;28;20050;-57
2023/11/12 18:07:29;;;;;;;3.05;2.13;;;;;;;;;;4968371;28;20027;-56
2023/11/12 18:13:00;;;;;;;3.53;2.20;;;;;;;;;;4965916;28;20106;-59
2023/11/12 18:15:58;;;;;;;2.28;1.70;;;;;;;;;;4971957;28;20034;-57
2023/11/12 18:21:53;;;;;;;3.15;2.17;;;;;;;;;;4952707;28;20066;-58
2023/11/12 18:24:24;;;;;;;2.92;2.08;;;;;;;;;;4969613;28;20051;-58
2023/11/12 18:27:10;;;;;;;2.30;1.90;;;;;;;;;;4967989;28;20081;-58
2023/11/12 18:29:55;;;;;;;4.50;2.90;;;;;;;;;;4952550;28;20047;-58
2023/11/12 18:32:32;;;;;;;3.15;2.17;;;;;;;;;;4971427;28;20325;-58
2023/11/12 18:35:43;;;;;;;;;;;;;;;;;;;;;
2023/11/12 18:38:27;;;;;;;;;;;;;;;;;;;;;
2023/11/12 18:41:17;;;;;;;;;;;;;;;;;;;;;
2023/11/12 18:44:04;;;;;;;4.10;2.92;;;;;;;;;;4970620;28;20161;-56
2023/11/12 18:46:51;;;;;;;4.68;2.53;;;;;;;;;;4933985;28;20045;-57
2023/11/12 18:49:48;;;;;;;5.15;2.65;;;;;;;;;;4967614;28;20090;-57
2023/11/12 18:52:33;;;;;;;2.80;2.20;;;;;;;;;;4918107;28;20062;-57
2023/11/12 18:58:16;;;;;;;2.95;2.05;;;;;;;;;;4952403;28;20034;-56
2023/11/12 19:04:02;;;;;;;2.90;1.98;;;;;;;;;;4968681;28;20088;-55
2023/11/12 19:06:36;;;;;;;4.35;2.90;;;;;;;;;;4966692;28;20061;-57
2023/11/12 19:12:37;;;;;;;;;;;;;;;;;;;;;
2023/11/12 19:15:36;;;;;;;3.75;2.63;;;;;;;;;;4898440;29;20036;-57
2023/11/12 19:18:34;;;;;;;3.13;2.35;;;;;;;;;;4967702;28;20047;-55
2023/11/12 19:21:45;;;;;;;3.95;2.80;;;;;;;;;;4984993;28;20042;-57
2023/11/12 19:24:21;;;;;;;4.82;3.75;;;;;;;;;;4977043;28;20098;-57
2023/11/12 19:33:09;;;;;;;7.47;6.07;;;;;;;;;;4889849;29;20116;-55
2023/11/12 19:35:49;;;;;;;7.13;6.03;;;;;;;;;;4912592;29;20032;-57
2023/11/12 19:38:44;;;;;;;6.47;4.32;;;;;;;;;;4906759;29;20053;-57
2023/11/12 19:41:24;;;;;;;5.80;4.40;;;;;;;;;;4909412;29;20044;-57
2023/11/12 19:44:03;;;;;;;6.53;5.53;;;;;;;;;;4940984;28;20058;-56
2023/11/12 19:49:44;;;;;;;6.15;4.97;;;;;;;;;;4963808;28;20030;-58
2023/11/12 19:52:18;;;;;;;7.65;4.93;;;;;;;;;;4977879;28;20574;-59
2023/11/12 19:54:50;;;;;;;6.20;5.18;;;;;;;;;;4976623;28;20035;-57
2023/11/12 20:00:39;;;;;;;10.15;5.30;;;;;;;;;;4955772;28;20457;-57
2023/11/12 20:03:12;;;;;;;6.32;5.53;;;;;;;;;;4972805;28;20031;-56
2023/11/12 20:05:40;;;;;;;10.00;6.57;;;;;;;;;;4979559;28;20098;-56
2023/11/12 20:11:48;;;;;;;7.70;6.38;;;;;;;;;;4976273;28;20046;-54
2023/11/12 20:14:38;;;;;;;9.80;8.80;;;;;;;;;;4960903;28;20034;-56
2023/11/12 20:17:14;;;;;;;9.35;7.22;;;;;;;;;;4969397;28;20074;-57
2023/11/12 20:19:54;;;;;;;7.93;6.72;;;;;;;;;;4985942;28;20075;-56
2023/11/12 20:22:33;;;;;;;6.13;5.50;;;;;;;;;;4972081;28;20039;-58
2023/11/12 20:25:28;;;;;;;9.02;6.45;;;;;;;;;;4964143;28;20532;-59
2023/11/12 20:27:57;;;;;;;7.88;6.05;;;;;;;;;;4961060;28;20049;-57
2023/11/12 20:30:28;;;;;;;6.20;5.20;;;;;;;;;;4976593;28;20039;-58
2023/11/12 20:33:26;;;;;;;5.25;4.38;;;;;;;;;;4977888;28;20053;-58
2023/11/12 20:36:01;;;;;;;6.40;5.28;;;;;;;;;;4970203;28;20042;-57
2023/11/12 20:38:34;;;;;;;6.20;5.35;;;;;;;;;;4983964;28;20035;-58
2023/11/12 20:41:10;;;;;;;6.65;5.40;;;;;;;;;;4973632;28;20045;-58
2023/11/12 20:46:29;;;;;;;7.63;4.90;;;;;;;;;;4971528;28;20049;-59
2023/11/12 20:49:04;;;;;;;5.15;3.90;;;;;;;;;;4979288;28;20033;-57
2023/11/12 20:51:52;;;;;;;5.32;4.82;;;;;;;;;;4978450;28;20035;-59
2023/11/12 20:54:23;;;;;;;5.47;4.40;;;;;;;;;;4981006;28;20042;-55
2023/11/12 20:56:57;;;;;;;5.45;4.70;;;;;;;;;;4982096;28;20090;-57
2023/11/12 20:59:26;;;;;;;6.82;4.88;;;;;;;;;;4982775;28;20446;-59
2023/11/12 21:02:05;;;;;;;9.38;5.20;;;;;;;;;;4982222;28;20109;-58
2023/11/12 21:04:37;;;;;;;6.45;5.32;;;;;;;;;;4996536;28;20066;-59
2023/11/12 21:07:12;;;;;;;5.72;4.65;;;;;;;;;;4979977;28;20155;-58
2023/11/12 21:10:32;;;;;;;5.70;4.65;;;;;;;;;;4992346;28;20043;-56
2023/11/12 21:12:59;;;;;;;7.30;4.72;;;;;;;;;;4931410;29;20036;-57
2023/11/12 21:18:50;;;;;;;6.03;5.35;;;;;;;;;;4962434;29;20166;-57
2023/11/12 21:24:48;;;;;;;5.65;4.40;;;;;;;;;;4962401;28;20521;-59
2023/11/12 21:27:27;;;;;;;8.20;5.95;;;;;;;;;;4978625;28;20034;-58
2023/11/12 21:33:41;;;;;;;7.50;5.57;;;;;;;;;;4948863;29;20197;-57
2023/11/12 21:39:09;;;;;;;6.68;5.97;;;;;;;;;;4923384;29;20039;-58
2023/11/12 21:41:35;;;;;;;5.93;4.93;;;;;;;;;;4947336;29;20058;-57
2023/11/12 21:44:09;;;;;;;8.48;6.25;;;;;;;;;;4973372;28;20058;-57
2023/11/12 21:47:01;;;;;;;5.20;4.47;;;;;;;;;;4975073;28;20546;-55